Terminal Aerodrome Forecast
Issued by NWS Buffalo, NY

Current Version | Previous Version | Text Only | Print | Product List | Glossary On
Versions: 1 2 3 4 5 6 7 8 9 10 11 12 13 14 15 16 17 18 19 20 21 22 23
000
FTUS41 KBUF 270246 AAA
TAFROC
TAF AMD
KROC 270246Z 2703/2724 15004KT P6SM BKN200
     FM271000 22006KT P6SM BKN250
     FM271700 25010KT P6SM SCT045
     FM272200 27008KT P6SM FEW045 SCT250=

USA.gov is the U.S. government's official web portal to all federal, state and local government web resources and services.